Terminal Aerodrome Forecast
Issued by NWS

Home | Current Version | Previous Version | Text Only | Print | Product List | Glossary Off
Versions: 1 2 3 4 5 6 7 8 9 10 11 12 13 14

299
FTUS43 KIWX 201120
TAFSBN
TAF
KSBN 201120Z 2012/2112 17007KT P6SM BKN050
     FM201600 21006KT 4SM -SHRA BR BKN030
      TEMPO 2017/2019 2SM TSRAGS BR BKN015CB
     FM202300 36006KT P6SM OVC015=

USA.gov is the U.S. government's official web portal to all federal, state and local government web resources and services.